Time;durP1;ratioP1;P1;durP2;ratioP2;P2;SDS_P1;SDS_P2;PMS_P1;PMS_P2;Temp;Humidity;BMP_temperature;BMP_pressure;BME280_temperature;BME280_humidity;BME280_pressure;Samples;Min_cycle;Max_cycle;Signal;HPM_P1;HPM_P2
2023/11/27 00:02:23;;;;;;;7.20;2.92;;;2.10;99.90;;;;;;4896658;29;20067;-65
2023/11/27 00:04:49;;;;;;;5.90;3.33;;;2.10;99.90;;;;;;4915680;29;20036;-65
2023/11/27 00:07:14;;;;;;;5.00;2.70;;;2.10;99.90;;;;;;4914314;29;20024;-65
2023/11/27 00:09:40;;;;;;;5.30;2.53;;;2.10;99.90;;;;;;4914792;29;20040;-64
2023/11/27 00:12:07;;;;;;;4.30;2.80;;;2.10;99.90;;;;;;4914806;29;20039;-65
2023/11/27 00:14:33;;;;;;;3.83;2.53;;;2.10;99.90;;;;;;4898988;29;20372;-65
2023/11/27 00:16:58;;;;;;;4.35;3.03;;;2.10;99.90;;;;;;4914905;29;20470;-65
2023/11/27 00:19:24;;;;;;;5.07;2.75;;;2.10;99.90;;;;;;4914622;29;20035;-65
2023/11/27 00:21:50;;;;;;;5.30;2.83;;;2.10;99.90;;;;;;4897575;29;20060;-65
2023/11/27 00:24:15;;;;;;;6.60;2.65;;;2.10;99.90;;;;;;4914469;29;20056;-65
2023/11/27 00:26:41;;;;;;;6.85;2.72;;;2.10;99.90;;;;;;4914135;29;20099;-64
2023/11/27 00:29:07;;;;;;;9.55;3.03;;;2.10;99.90;;;;;;4897991;29;20039;-65
2023/11/27 00:31:32;;;;;;;5.32;2.80;;;2.10;99.90;;;;;;4913704;29;20593;-64
2023/11/27 00:33:59;;;;;;;6.18;2.30;;;2.10;99.90;;;;;;4914782;29;20188;-63
2023/11/27 00:36:25;;;;;;;4.80;2.38;;;2.10;99.90;;;;;;4913489;29;20028;-63
2023/11/27 00:38:51;;;;;;;6.95;3.05;;;2.10;99.90;;;;;;4914991;29;20351;-63
2023/11/27 00:41:17;;;;;;;3.38;2.35;;;2.20;99.90;;;;;;4913468;29;20071;-65
2023/11/27 00:43:44;;;;;;;3.42;2.40;;;2.20;99.90;;;;;;4915097;29;20028;-65
2023/11/27 00:46:10;;;;;;;6.45;3.00;;;2.20;99.90;;;;;;4907628;29;20036;-64
2023/11/27 00:48:37;;;;;;;5.93;2.70;;;2.20;99.90;;;;;;4914067;29;20051;-65
2023/11/27 00:51:03;;;;;;;7.38;2.67;;;2.20;99.90;;;;;;4916341;29;20060;-65
2023/11/27 00:53:29;;;;;;;7.95;2.45;;;2.20;99.90;;;;;;4917290;29;20367;-66
2023/11/27 00:55:54;;;;;;;4.40;2.55;;;2.10;99.90;;;;;;4916259;29;20031;-64
2023/11/27 00:58:20;;;;;;;9.07;3.40;;;2.10;99.90;;;;;;4914367;29;20099;-65
2023/11/27 01:00:46;;;;;;;5.35;2.90;;;2.10;99.90;;;;;;4914639;29;20107;-65
2023/11/27 01:03:11;;;;;;;5.63;2.47;;;2.10;99.90;;;;;;4915140;29;20043;-65
2023/11/27 01:05:38;;;;;;;4.68;2.60;;;2.10;99.90;;;;;;4915638;29;20059;-64
2023/11/27 01:08:04;;;;;;;4.90;2.35;;;2.10;99.90;;;;;;4914349;29;20422;-65
2023/11/27 01:10:31;;;;;;;6.35;2.75;;;2.20;99.90;;;;;;4912956;29;20377;-64
2023/11/27 01:12:57;;;;;;;4.57;2.38;;;2.20;99.90;;;;;;4914199;29;20371;-64
2023/11/27 01:15:23;;;;;;;4.82;2.45;;;2.10;99.90;;;;;;4912735;29;20028;-64
2023/11/27 01:17:49;;;;;;;7.00;2.67;;;2.10;99.90;;;;;;4914528;29;20095;-64
2023/11/27 01:20:15;;;;;;;4.38;2.65;;;2.10;99.90;;;;;;4913530;29;20393;-65
2023/11/27 01:22:40;;;;;;;5.95;2.70;;;2.10;99.90;;;;;;4913368;29;20076;-64
2023/11/27 01:25:07;;;;;;;5.55;2.42;;;2.10;99.90;;;;;;4914489;29;20537;-64
2023/11/27 01:27:34;;;;;;;4.35;2.00;;;2.10;99.90;;;;;;4912973;29;20500;-65
2023/11/27 01:30:01;;;;;;;9.05;2.60;;;2.10;99.90;;;;;;4914123;29;20060;-64
2023/11/27 01:32:27;;;;;;;4.05;2.75;;;2.10;99.90;;;;;;4912968;29;20039;-64
2023/11/27 01:34:53;;;;;;;4.20;2.40;;;2.10;99.90;;;;;;4914156;29;20024;-64
2023/11/27 01:37:19;;;;;;;4.03;2.30;;;2.10;99.90;;;;;;4912561;29;20052;-65
2023/11/27 01:39:45;;;;;;;8.18;2.70;;;2.10;99.90;;;;;;4914071;29;20042;-64
2023/11/27 01:42:10;;;;;;;4.93;2.30;;;2.10;99.90;;;;;;4913072;29;20111;-65
2023/11/27 01:44:37;;;;;;;5.78;2.67;;;2.10;99.90;;;;;;4913395;29;20028;-64
2023/11/27 01:47:03;;;;;;;6.68;2.20;;;2.00;99.90;;;;;;4905271;29;20079;-64
2023/11/27 01:49:29;;;;;;;6.40;2.50;;;2.00;99.90;;;;;;4913445;29;20036;-64
2023/11/27 01:51:56;;;;;;;5.60;2.97;;;2.00;99.90;;;;;;4913508;29;20477;-65
2023/11/27 01:54:22;;;;;;;5.63;2.50;;;2.00;99.90;;;;;;4913315;29;20032;-64
2023/11/27 01:56:50;;;;;;;9.02;3.03;;;2.00;99.90;;;;;;4914901;29;20026;-64
2023/11/27 01:59:16;;;;;;;4.68;2.53;;;2.00;99.90;;;;;;4917005;29;20040;-64
2023/11/27 02:01:43;;;;;;;5.43;2.75;;;2.00;99.90;;;;;;4917296;29;20035;-64
2023/11/27 02:04:08;;;;;;;6.05;2.50;;;2.00;99.90;;;;;;4917476;29;20028;-64
2023/11/27 02:06:34;;;;;;;4.60;2.10;;;2.10;99.90;;;;;;4916283;29;20581;-64
2023/11/27 02:09:00;;;;;;;3.42;2.25;;;2.10;99.90;;;;;;4917724;29;20028;-64
2023/11/27 02:11:26;;;;;;;3.22;2.40;;;2.10;99.90;;;;;;4916195;29;20438;-64
2023/11/27 02:13:52;;;;;;;4.95;2.63;;;2.10;99.90;;;;;;4917488;29;20039;-64
2023/11/27 02:16:18;;;;;;;4.05;2.17;;;2.10;99.90;;;;;;4916086;29;20036;-64
2023/11/27 02:18:43;;;;;;;6.25;2.10;;;2.20;99.90;;;;;;4918056;29;20509;-64
2023/11/27 02:21:11;;;;;;;3.72;2.22;;;2.20;99.90;;;;;;4917212;29;20033;-65
2023/11/27 02:23:37;;;;;;;3.72;2.63;;;2.30;99.90;;;;;;4916810;29;20083;-64
2023/11/27 02:26:04;;;;;;;6.57;2.72;;;2.30;99.90;;;;;;4920172;29;20032;-64
2023/11/27 02:28:29;;;;;;;4.22;2.55;;;2.30;99.90;;;;;;4915917;29;20351;-65
2023/11/27 02:30:55;;;;;;;5.00;1.77;;;2.40;99.90;;;;;;4916851;29;20059;-64
2023/11/27 02:33:21;;;;;;;3.38;2.08;;;2.50;99.90;;;;;;4916639;29;20032;-65
2023/11/27 02:35:48;;;;;;;4.55;2.25;;;2.50;99.90;;;;;;4916855;29;20104;-64
2023/11/27 02:38:15;;;;;;;6.57;2.05;;;2.60;99.90;;;;;;4916075;29;20142;-64
2023/11/27 02:40:40;;;;;;;5.47;1.70;;;2.50;99.90;;;;;;4916626;29;20031;-64
2023/11/27 02:43:06;;;;;;;4.80;1.67;;;2.50;99.90;;;;;;4917053;29;20390;-64
2023/11/27 02:45:33;;;;;;;3.10;1.73;;;2.50;99.90;;;;;;4915233;29;20107;-64
2023/11/27 02:47:58;;;;;;;4.38;1.45;;;2.50;99.90;;;;;;4916751;29;20066;-64
2023/11/27 02:50:24;;;;;;;3.55;1.83;;;2.50;99.90;;;;;;4915576;29;20052;-64
2023/11/27 02:52:50;;;;;;;5.85;1.83;;;2.50;99.90;;;;;;4916991;29;20028;-64
2023/11/27 02:55:16;;;;;;;4.13;2.03;;;2.50;99.90;;;;;;4916178;29;20051;-64
2023/11/27 02:57:42;;;;;;;3.42;1.92;;;2.50;99.90;;;;;;4916461;29;20032;-64
2023/11/27 03:00:12;;;;;;;4.60;2.05;;;2.50;99.90;;;;;;4916839;29;20108;-64
2023/11/27 03:02:42;;;;;;;2.17;1.30;;;2.50;99.90;;;;;;4915651;29;20035;-63
2023/11/27 03:05:08;;;;;;;3.17;1.77;;;2.60;99.90;;;;;;4916478;29;20403;-64
2023/11/27 03:07:35;;;;;;;4.15;1.90;;;2.60;99.90;;;;;;4915319;29;20024;-63
2023/11/27 03:10:02;;;;;;;5.22;1.85;;;2.70;99.90;;;;;;4916442;29;20036;-62
2023/11/27 03:12:28;;;;;;;3.80;1.90;;;2.60;99.90;;;;;;4914658;29;20080;-64
2023/11/27 03:14:53;;;;;;;4.75;1.80;;;2.70;99.90;;;;;;4915647;29;20046;-64
2023/11/27 03:17:21;;;;;;;2.75;1.90;;;2.70;99.90;;;;;;4914888;29;20032;-64
2023/11/27 03:19:46;;;;;;;5.70;2.13;;;2.80;99.90;;;;;;4916077;29;20076;-64
2023/11/27 03:22:12;;;;;;;6.78;3.00;;;2.70;99.90;;;;;;4915371;29;20146;-64
2023/11/27 03:24:38;;;;;;;8.30;3.20;;;2.80;99.90;;;;;;4915741;29;20059;-64
2023/11/27 03:27:05;;;;;;;5.95;2.08;;;2.80;99.90;;;;;;4915366;29;20540;-63
2023/11/27 03:29:31;;;;;;;3.53;2.20;;;2.80;99.90;;;;;;4914996;29;20040;-64
2023/11/27 03:31:56;;;;;;;2.90;1.92;;;2.80;99.90;;;;;;4915315;29;20075;-64
2023/11/27 03:34:22;;;;;;;4.05;2.30;;;2.70;99.90;;;;;;4915168;29;20103;-64
2023/11/27 03:36:47;;;;;;;4.35;2.38;;;2.70;99.90;;;;;;4914745;29;20036;-63
2023/11/27 03:39:13;;;;;;;5.07;2.22;;;2.70;99.90;;;;;;4915456;29;20035;-63
2023/11/27 03:41:39;;;;;;;6.13;1.95;;;2.60;99.90;;;;;;4914676;29;20024;-62
2023/11/27 03:44:04;;;;;;;5.85;2.08;;;2.50;99.90;;;;;;4915545;29;20454;-64
2023/11/27 03:46:30;;;;;;;4.50;2.25;;;2.50;99.90;;;;;;4903341;29;20059;-63
2023/11/27 03:48:56;;;;;;;3.33;1.67;;;2.40;99.90;;;;;;4915581;29;20111;-62
2023/11/27 03:51:21;;;;;;;4.45;1.85;;;2.30;99.90;;;;;;4914326;29;20028;-62
2023/11/27 03:53:47;;;;;;;5.85;2.15;;;2.40;99.90;;;;;;4915121;29;20038;-63
2023/11/27 03:56:12;;;;;;;3.05;1.60;;;2.40;99.90;;;;;;4914387;29;20072;-63
2023/11/27 03:58:38;;;;;;;3.20;1.98;;;2.30;99.90;;;;;;4914925;29;20028;-63
2023/11/27 04:01:04;;;;;;;3.30;1.77;;;2.30;99.90;;;;;;4915109;29;20052;-63
2023/11/27 04:03:30;;;;;;;3.28;1.98;;;2.30;99.90;;;;;;4914691;29;20036;-62
2023/11/27 04:05:55;;;;;;;4.88;2.22;;;2.30;99.90;;;;;;4914728;29;20080;-62
2023/11/27 04:08:21;;;;;;;4.47;2.05;;;2.20;99.90;;;;;;4897087;29;20401;-62
2023/11/27 04:10:46;;;;;;;5.65;2.30;;;2.20;99.90;;;;;;4914251;29;20030;-63
2023/11/27 04:13:12;;;;;;;4.13;1.90;;;2.20;99.90;;;;;;4915133;29;20096;-62
2023/11/27 04:15:38;;;;;;;5.25;2.28;;;2.20;99.90;;;;;;4914055;29;20367;-64
2023/11/27 04:18:04;;;;;;;3.17;1.58;;;2.20;99.90;;;;;;4914865;29;20040;-64
2023/11/27 04:20:29;;;;;;;6.53;2.30;;;2.10;99.90;;;;;;4912807;29;20075;-64
2023/11/27 04:22:56;;;;;;;2.60;1.67;;;2.10;99.90;;;;;;4914648;29;20028;-64
2023/11/27 04:25:21;;;;;;;1.92;1.70;;;2.00;99.90;;;;;;4913641;29;20039;-64
2023/11/27 04:27:48;;;;;;;4.57;2.08;;;1.90;99.90;;;;;;4914781;29;20032;-64
2023/11/27 04:30:14;;;;;;;4.32;2.05;;;1.80;99.90;;;;;;4914142;29;20024;-64
2023/11/27 04:32:39;;;;;;;4.30;2.00;;;1.80;99.90;;;;;;4913673;29;20082;-64
2023/11/27 04:35:05;;;;;;;3.97;2.10;;;1.70;99.90;;;;;;4914924;29;20032;-63
2023/11/27 04:37:31;;;;;;;3.92;2.15;;;1.70;99.90;;;;;;4912909;29;20059;-63
2023/11/27 04:39:57;;;;;;;3.47;1.70;;;1.70;99.90;;;;;;4914857;29;20091;-64
2023/11/27 04:42:25;;;;;;;3.22;1.95;;;1.70;99.90;;;;;;4913146;29;20123;-64
2023/11/27 04:44:52;;;;;;;4.57;2.03;;;1.70;99.90;;;;;;4914117;29;20035;-64
2023/11/27 04:47:18;;;;;;;2.90;1.70;;;1.70;99.90;;;;;;4913158;29;20056;-64
2023/11/27 04:49:43;;;;;;;4.30;1.88;;;1.70;99.90;;;;;;4914595;29;20445;-63
2023/11/27 04:52:09;;;;;;;5.00;2.28;;;1.70;99.90;;;;;;4914044;29;20448;-64
2023/11/27 04:54:34;;;;;;;3.53;1.58;;;1.70;99.90;;;;;;4913513;29;20097;-64
2023/11/27 04:57:00;;;;;;;4.47;2.80;;;1.70;99.90;;;;;;4914033;29;20127;-64
2023/11/27 04:59:26;;;;;;;3.65;1.60;;;1.70;99.90;;;;;;4914161;29;20059;-63
2023/11/27 05:01:52;;;;;;;3.60;1.83;;;1.80;99.90;;;;;;4913775;29;20028;-63
2023/11/27 05:04:18;;;;;;;3.63;1.30;;;1.80;99.90;;;;;;4913674;29;20120;-64
2023/11/27 05:06:45;;;;;;;5.93;1.50;;;1.90;99.90;;;;;;4914458;29;20114;-63
2023/11/27 05:09:12;;;;;;;4.43;1.38;;;1.80;99.90;;;;;;4914667;29;20096;-63
2023/11/27 05:11:40;;;;;;;1.88;1.35;;;1.90;99.90;;;;;;4913637;29;20039;-63
2023/11/27 05:14:06;;;;;;;3.42;1.35;;;1.90;99.90;;;;;;4914465;29;20162;-63
2023/11/27 05:16:31;;;;;;;2.15;1.20;;;1.90;99.90;;;;;;4913221;29;20238;-64
2023/11/27 05:18:57;;;;;;;5.72;1.30;;;1.90;99.90;;;;;;4914766;29;20039;-63
2023/11/27 05:21:23;;;;;;;6.75;1.58;;;1.90;99.90;;;;;;4913415;29;20079;-63
2023/11/27 05:23:49;;;;;;;2.88;1.25;;;1.90;99.90;;;;;;4914258;29;20028;-63
2023/11/27 05:26:15;;;;;;;2.17;1.27;;;1.90;99.90;;;;;;4915354;29;20373;-64
2023/11/27 05:28:41;;;;;;;3.15;1.38;;;1.90;99.90;;;;;;4914317;29;20441;-63
2023/11/27 05:31:06;;;;;;;4.88;1.50;;;1.90;99.90;;;;;;4914844;29;20028;-63
2023/11/27 05:33:33;;;;;;;3.65;1.30;;;1.90;99.90;;;;;;4920004;29;20039;-63
2023/11/27 05:35:59;;;;;;;2.33;1.23;;;1.90;99.90;;;;;;4920165;29;20043;-62
2023/11/27 05:38:25;;;;;;;4.53;1.23;;;1.90;99.90;;;;;;4919085;29;20052;-64
2023/11/27 05:40:50;;;;;;;3.95;1.33;;;2.00;99.90;;;;;;4920403;29;20028;-62
2023/11/27 05:43:17;;;;;;;2.33;1.20;;;2.10;99.90;;;;;;4919580;29;20031;-63
2023/11/27 05:45:43;;;;;;;1.90;1.38;;;2.10;99.90;;;;;;4918037;29;20107;-63
2023/11/27 05:48:09;;;;;;;3.30;1.40;;;2.10;99.90;;;;;;4920262;29;20036;-64
2023/11/27 05:50:41;;;;;;;2.13;1.30;;;2.10;99.90;;;;;;4919299;29;20055;-63
2023/11/27 05:53:09;;;;;;;4.28;1.85;;;2.10;99.90;;;;;;4920528;29;20032;-63
2023/11/27 05:55:36;;;;;;;2.53;1.63;;;2.20;99.90;;;;;;4919216;29;20036;-63
2023/11/27 05:58:02;;;;;;;3.35;1.80;;;2.20;99.90;;;;;;4920500;29;20024;-63
2023/11/27 06:00:27;;;;;;;3.40;1.80;;;2.20;99.90;;;;;;4919073;29;20032;-63
2023/11/27 06:02:53;;;;;;;3.83;1.77;;;2.30;99.90;;;;;;4920071;29;20454;-66
2023/11/27 06:05:19;;;;;;;2.83;1.77;;;2.20;99.90;;;;;;4919133;29;20024;-65
2023/11/27 06:07:45;;;;;;;4.40;1.75;;;2.20;99.90;;;;;;4920319;29;20457;-64
2023/11/27 06:10:12;;;;;;;4.35;1.85;;;2.20;99.90;;;;;;4919904;29;20501;-63
2023/11/27 06:12:37;;;;;;;9.43;1.92;;;2.30;99.90;;;;;;4919360;29;20052;-63
2023/11/27 06:15:03;;;;;;;3.53;1.70;;;2.30;99.90;;;;;;4920073;29;20063;-64
2023/11/27 06:17:29;;;;;;;3.03;1.73;;;2.20;99.90;;;;;;4918837;29;20442;-64
2023/11/27 06:19:55;;;;;;;3.88;1.67;;;2.10;99.90;;;;;;4920266;29;20063;-64
2023/11/27 06:22:20;;;;;;;2.45;1.38;;;2.10;99.90;;;;;;4918871;29;20099;-71
2023/11/27 06:24:47;;;;;;;3.80;1.70;;;2.10;99.90;;;;;;4920229;29;20024;-66
2023/11/27 06:27:13;;;;;;;3.20;2.05;;;2.10;99.90;;;;;;4919231;29;20027;-65
2023/11/27 06:29:38;;;;;;;4.20;2.05;;;2.20;99.90;;;;;;4919855;29;20028;-66
2023/11/27 06:32:04;;;;;;;5.13;2.28;;;2.30;99.90;;;;;;4919741;29;20092;-66
2023/11/27 06:34:30;;;;;;;4.28;2.25;;;2.30;99.90;;;;;;4919079;29;20154;-65
2023/11/27 06:36:55;;;;;;;4.38;2.20;;;2.50;99.90;;;;;;4918847;29;20538;-65
2023/11/27 06:39:21;;;;;;;5.47;2.67;;;2.50;99.90;;;;;;4919637;29;20047;-67
2023/11/27 06:41:47;;;;;;;6.10;2.65;;;2.60;99.90;;;;;;4919741;29;20083;-72
2023/11/27 06:44:17;;;;;;;4.53;2.60;;;2.60;99.90;;;;;;4915674;29;20032;-68
2023/11/27 06:46:44;;;;;;;5.20;2.70;;;2.60;99.90;;;;;;4917370;29;20397;-70
2023/11/27 06:49:10;;;;;;;7.20;2.70;;;2.60;99.90;;;;;;4918330;29;20562;-66
2023/11/27 06:51:36;;;;;;;4.97;2.28;;;2.60;99.90;;;;;;4908541;29;20123;-66
2023/11/27 06:54:02;;;;;;;4.10;2.60;;;2.60;99.90;;;;;;4915577;29;20043;-64
2023/11/27 06:56:33;;;;;;;5.25;2.78;;;2.60;99.90;;;;;;4914049;29;20044;-66
2023/11/27 06:59:03;;;;;;;6.22;2.53;;;2.70;99.90;;;;;;4915755;29;20040;-66
2023/11/27 07:01:29;;;;;;;6.57;2.67;;;2.60;99.90;;;;;;4915356;29;20035;-66
2023/11/27 07:03:58;;;;;;;3.53;2.50;;;2.60;99.90;;;;;;4916350;29;20396;-65
2023/11/27 07:06:25;;;;;;;3.40;2.23;;;2.70;99.90;;;;;;4915425;29;20084;-63
2023/11/27 07:08:51;;;;;;;4.95;2.80;;;2.70;99.90;;;;;;4916952;29;20035;-63
2023/11/27 07:11:17;;;;;;;8.43;3.10;;;2.80;99.90;;;;;;4915292;29;20032;-63
2023/11/27 07:13:42;;;;;;;5.13;2.97;;;2.80;99.90;;;;;;4916676;29;20031;-69
2023/11/27 07:16:09;;;;;;;4.20;2.90;;;2.90;99.90;;;;;;4916009;29;20028;-69
2023/11/27 07:18:34;;;;;;;5.97;3.13;;;2.80;99.90;;;;;;4915603;29;20036;-69
2023/11/27 07:21:00;;;;;;;8.07;3.03;;;2.80;99.90;;;;;;4915771;29;20054;-69
2023/11/27 07:23:26;;;;;;;8.55;3.58;;;2.80;99.90;;;;;;4915683;29;20583;-68
2023/11/27 07:25:53;;;;;;;4.50;3.05;;;2.80;99.90;;;;;;4915987;29;20107;-64
2023/11/27 07:28:19;;;;;;;6.82;2.78;;;2.80;99.90;;;;;;4915181;29;20064;-63
2023/11/27 07:30:45;;;;;;;5.32;2.92;;;2.80;99.90;;;;;;4915340;29;20063;-64
2023/11/27 07:33:12;;;;;;;4.60;2.92;;;2.80;99.90;;;;;;4916319;29;20071;-64
2023/11/27 07:35:39;;;;;;;7.60;3.10;;;2.90;99.90;;;;;;4914414;29;20082;-64
2023/11/27 07:38:04;;;;;;;3.72;2.53;;;2.90;99.90;;;;;;4915646;29;20050;-65
2023/11/27 07:40:30;;;;;;;6.60;2.80;;;2.90;99.90;;;;;;4914816;29;20032;-66
2023/11/27 07:42:56;;;;;;;6.20;2.72;;;2.90;99.90;;;;;;4913736;29;20043;-64
2023/11/27 07:45:21;;;;;;;5.55;2.63;;;2.90;99.90;;;;;;4906117;29;20040;-63
2023/11/27 07:47:47;;;;;;;4.00;2.28;;;2.90;99.90;;;;;;4916320;29;20039;-65
2023/11/27 07:50:12;;;;;;;4.90;2.47;;;2.90;99.90;;;;;;4914836;29;20099;-66
2023/11/27 07:52:38;;;;;;;6.78;2.55;;;2.90;99.90;;;;;;4914311;29;20031;-65
2023/11/27 07:55:04;;;;;;;6.68;2.50;;;3.00;99.90;;;;;;4915490;29;20032;-64
2023/11/27 07:57:34;;;;;;;5.68;2.80;;;3.00;99.90;;;;;;4914636;29;20032;-64
2023/11/27 08:00:01;;;;;;;4.43;2.90;;;3.10;99.90;;;;;;4915213;29;20090;-65
2023/11/27 08:02:27;;;;;;;6.40;2.75;;;3.10;99.90;;;;;;4913795;29;20040;-64
2023/11/27 08:04:52;;;;;;;4.90;2.80;;;3.20;99.90;;;;;;4915609;29;20028;-64
2023/11/27 08:07:18;;;;;;;6.50;2.83;;;3.20;99.90;;;;;;4914097;29;20361;-66
2023/11/27 08:09:48;;;;;;;3.95;2.78;;;3.30;99.90;;;;;;4915206;29;20040;-65
2023/11/27 08:12:15;;;;;;;6.13;2.97;;;3.30;99.90;;;;;;4914361;29;20032;-65
2023/11/27 08:14:40;;;;;;;4.47;3.03;;;3.30;99.90;;;;;;4909082;29;20036;-65
2023/11/27 08:17:06;;;;;;;8.73;3.40;;;3.40;99.90;;;;;;4914514;29;20036;-65
2023/11/27 08:19:33;;;;;;;5.88;3.17;;;3.40;99.90;;;;;;4914494;29;20226;-65
2023/11/27 08:22:03;;;;;;;6.40;3.17;;;3.50;99.90;;;;;;4914958;29;20072;-65
2023/11/27 08:24:32;;;;;;;8.77;3.10;;;3.60;99.90;;;;;;4914394;29;20430;-65
2023/11/27 08:27:01;;;;;;;5.40;3.03;;;3.60;99.90;;;;;;4919600;29;20086;-63
2023/11/27 08:29:28;;;;;;;10.30;3.47;;;3.60;99.90;;;;;;4920587;29;20047;-69
2023/11/27 08:31:53;;;;;;;5.38;3.15;;;3.60;99.90;;;;;;4920361;29;20115;-65
2023/11/27 08:34:19;;;;;;;7.50;3.53;;;3.60;99.90;;;;;;4916570;29;20080;-70
2023/11/27 08:36:45;;;;;;;7.20;3.60;;;3.70;99.90;;;;;;4914330;29;20040;-65
2023/11/27 08:39:11;;;;;;;5.82;3.45;;;3.70;99.90;;;;;;4915232;29;20449;-65
2023/11/27 08:41:37;;;;;;;11.57;3.25;;;3.70;99.90;;;;;;4913968;29;20044;-65
2023/11/27 08:44:08;;;;;;;5.75;2.85;;;3.70;99.90;;;;;;4914635;29;20032;-65
2023/11/27 08:46:36;;;;;;;3.92;2.70;;;3.80;99.90;;;;;;4898231;29;20642;-65
2023/11/27 08:49:03;;;;;;;3.83;2.47;;;3.90;99.90;;;;;;4914545;29;20083;-65
2023/11/27 08:51:30;;;;;;;4.88;2.60;;;3.90;99.90;;;;;;4913003;29;20119;-65
2023/11/27 08:53:55;;;;;;;7.45;2.95;;;3.90;99.90;;;;;;4914679;29;20110;-65
2023/11/27 08:56:21;;;;;;;3.13;2.45;;;4.00;99.90;;;;;;4912964;29;20028;-66
2023/11/27 08:58:50;;;;;;;4.40;2.22;;;4.10;99.90;;;;;;4897548;29;20063;-65
2023/11/27 09:01:16;;;;;;;3.55;2.60;;;4.10;99.90;;;;;;4911256;29;20028;-65
2023/11/27 09:03:43;;;;;;;7.47;2.58;;;4.20;99.90;;;;;;4914740;29;20039;-65
2023/11/27 09:06:09;;;;;;;6.75;2.65;;;4.20;99.90;;;;;;4913302;29;20060;-65
2023/11/27 09:08:36;;;;;;;4.50;2.33;;;4.20;99.90;;;;;;4912292;29;20665;-65
2023/11/27 09:11:02;;;;;;;4.53;2.30;;;4.30;99.90;;;;;;4913937;29;20087;-65
2023/11/27 09:13:29;;;;;;;4.78;2.20;;;4.30;99.90;;;;;;4914512;29;20596;-65
2023/11/27 09:15:55;;;;;;;6.45;2.40;;;4.30;99.90;;;;;;4918622;29;20031;-65
2023/11/27 09:18:21;;;;;;;3.70;2.58;;;4.40;99.90;;;;;;4913420;29;20488;-65
2023/11/27 09:20:46;;;;;;;4.85;2.42;;;4.50;99.90;;;;;;4913999;29;20060;-65
2023/11/27 09:23:12;;;;;;;6.07;3.03;;;4.60;99.90;;;;;;4913794;29;20055;-65
2023/11/27 09:25:37;;;;;;;6.05;2.53;;;4.60;99.90;;;;;;4912393;29;20084;-65
2023/11/27 09:28:03;;;;;;;3.97;2.47;;;4.70;99.90;;;;;;4914714;29;20024;-65
2023/11/27 09:30:29;;;;;;;3.70;2.33;;;4.80;99.90;;;;;;4911798;29;20032;-65
2023/11/27 09:32:55;;;;;;;4.43;2.75;;;4.90;99.90;;;;;;4913490;29;20628;-65
2023/11/27 09:35:21;;;;;;;8.38;2.70;;;5.00;99.90;;;;;;4911958;29;20379;-65
2023/11/27 09:37:47;;;;;;;6.18;2.45;;;5.10;99.90;;;;;;4912489;29;20067;-64
2023/11/27 09:40:14;;;;;;;4.43;2.30;;;5.10;99.90;;;;;;4913247;29;20437;-64
2023/11/27 09:42:41;;;;;;;4.40;2.45;;;5.10;99.90;;;;;;4917295;29;20052;-65
2023/11/27 09:45:09;;;;;;;5.43;2.13;;;5.20;99.90;;;;;;4914637;29;20032;-65
2023/11/27 09:47:37;;;;;;;3.72;2.00;;;5.30;99.90;;;;;;4912032;29;20020;-64
2023/11/27 09:50:08;;;;;;;7.65;2.20;;;5.30;99.90;;;;;;4913074;29;20084;-64
2023/11/27 09:52:58;;;;;;;4.15;1.95;;;5.30;99.90;;;;;;4901801;29;20470;-65
2023/11/27 09:55:24;;;;;;;3.60;1.92;;;5.30;99.90;;;;;;4912593;29;20029;-65
2023/11/27 09:57:52;;;;;;;6.45;1.80;;;5.30;99.90;;;;;;4913761;29;20040;-64
2023/11/27 10:00:19;;;;;;;3.83;1.88;;;5.40;99.90;;;;;;4910334;29;20087;-65
2023/11/27 10:02:48;;;;;;;3.58;1.85;;;5.40;99.90;;;;;;4913396;29;20024;-64
2023/11/27 10:05:24;;;;;;;9.43;2.50;;;5.40;99.90;;;;;;4913872;29;20114;-64
2023/11/27 10:07:51;;;;;;;3.72;1.58;;;5.50;99.90;;;;;;4913172;29;20055;-64
2023/11/27 10:10:24;;;;;;;4.25;2.30;;;5.50;99.90;;;;;;4912358;29;20024;-64
2023/11/27 10:12:49;;;;;;;4.60;2.10;;;5.50;99.90;;;;;;4913505;29;20042;-65
2023/11/27 10:15:16;;;;;;;6.47;2.05;;;5.50;99.90;;;;;;4913335;29;20020;-64
2023/11/27 10:17:43;;;;;;;4.72;2.47;;;5.50;99.90;;;;;;4913245;29;20107;-65
2023/11/27 10:20:12;;;;;;;5.68;2.40;;;5.50;99.90;;;;;;4916890;29;20119;-65
2023/11/27 10:22:42;;;;;;;5.60;1.67;;;5.60;99.90;;;;;;4915737;29;20087;-65
2023/11/27 10:25:13;;;;;;;3.22;1.85;;;5.60;99.90;;;;;;4917343;29;20042;-65
2023/11/27 10:27:40;;;;;;;3.25;2.00;;;5.60;99.90;;;;;;4916305;29;20478;-65
2023/11/27 10:30:20;;;;;;;2.55;2.05;;;5.60;99.90;;;;;;4916987;29;20036;-65
2023/11/27 10:32:47;;;;;;;4.00;2.20;;;5.60;99.90;;;;;;4927400;29;20032;-65
2023/11/27 10:35:13;;;;;;;7.20;2.22;;;5.60;99.90;;;;;;4916962;29;20121;-67
2023/11/27 10:37:41;;;;;;;6.78;2.75;;;5.60;99.90;;;;;;4915096;29;20052;-65
2023/11/27 10:40:13;;;;;;;7.55;2.10;;;5.60;99.90;;;;;;4916822;29;20107;-65
2023/11/27 10:42:44;;;;;;;3.03;2.05;;;5.70;99.90;;;;;;4914871;29;20068;-70
2023/11/27 10:45:14;;;;;;;5.78;2.00;;;5.70;99.90;;;;;;4916190;29;20032;-68
2023/11/27 10:47:43;;;;;;;2.83;1.67;;;5.70;99.90;;;;;;4922435;29;20517;-64
2023/11/27 10:50:10;;;;;;;8.52;2.10;;;5.70;99.90;;;;;;4919350;29;20374;-65
2023/11/27 10:52:37;;;;;;;2.30;1.55;;;5.80;99.90;;;;;;4915636;29;20095;-65
2023/11/27 10:55:05;;;;;;;3.72;1.70;;;5.80;99.90;;;;;;4916718;29;20028;-65
2023/11/27 10:57:33;;;;;;;2.58;1.70;;;5.80;99.90;;;;;;4915150;29;20477;-65
2023/11/27 10:59:58;;;;;;;6.68;1.70;;;5.80;99.90;;;;;;4916302;29;20057;-65
2023/11/27 11:02:25;;;;;;;3.35;1.70;;;5.90;99.90;;;;;;4914979;29;20028;-65
2023/11/27 11:04:52;;;;;;;3.03;1.88;;;6.00;99.90;;;;;;4916427;29;20075;-64
2023/11/27 11:07:37;;;;;;;2.60;1.50;;;6.10;99.90;;;;;;4915327;29;20028;-64
2023/11/27 11:10:06;;;;;;;2.47;1.70;;;6.10;99.90;;;;;;4912226;29;20079;-65
2023/11/27 11:12:32;;;;;;;5.70;1.63;;;6.10;99.90;;;;;;4915162;29;20024;-65
2023/11/27 11:14:59;;;;;;;4.55;1.70;;;6.30;99.90;;;;;;4915843;29;20036;-65
2023/11/27 11:17:25;;;;;;;2.08;1.48;;;6.40;99.90;;;;;;4915358;29;20111;-64
2023/11/27 11:19:57;;;;;;;5.50;1.77;;;6.50;99.90;;;;;;4915837;29;20042;-64
2023/11/27 11:22:35;;;;;;;3.35;2.00;;;6.50;99.90;;;;;;4914630;29;20036;-64
2023/11/27 11:25:22;;;;;;;6.95;2.05;;;6.50;99.90;;;;;;4915618;29;20041;-64
2023/11/27 11:27:54;;;;;;;3.05;1.98;;;6.60;99.90;;;;;;4916382;29;20454;-65
2023/11/27 11:30:21;;;;;;;3.83;2.00;;;6.60;99.90;;;;;;4915720;29;20044;-65
2023/11/27 11:32:46;;;;;;;4.20;1.95;;;6.50;99.90;;;;;;4915859;29;20028;-65
2023/11/27 11:35:13;;;;;;;2.95;1.80;;;6.50;99.90;;;;;;4915860;29;20466;-64
2023/11/27 11:37:49;;;;;;;3.13;1.90;;;6.40;99.90;;;;;;4916023;29;20067;-63
2023/11/27 11:40:15;;;;;;;2.80;1.83;;;6.40;99.90;;;;;;4915475;29;20529;-64
2023/11/27 11:42:44;;;;;;;8.40;2.00;;;6.30;99.90;;;;;;4915110;29;20450;-64
2023/11/27 11:45:21;;;;;;;2.97;1.75;;;6.20;99.90;;;;;;4915531;29;20028;-65
2023/11/27 11:47:57;;;;;;;3.88;1.92;;;6.10;99.90;;;;;;4916138;29;20389;-65
2023/11/27 11:50:34;;;;;;;2.60;1.80;;;6.10;99.90;;;;;;4914219;29;20040;-65
2023/11/27 11:53:06;;;;;;;3.53;1.67;;;6.00;99.90;;;;;;4915850;29;20688;-65
2023/11/27 11:55:35;;;;;;;2.92;1.83;;;6.00;99.90;;;;;;4914604;29;20118;-64
2023/11/27 11:58:29;;;;;;;3.97;2.25;;;5.90;99.90;;;;;;4915640;29;20075;-64
2023/11/27 12:01:03;;;;;;;3.22;1.80;;;5.90;99.90;;;;;;4914294;29;20500;-65
2023/11/27 12:03:32;;;;;;;3.58;1.80;;;5.90;99.90;;;;;;4915197;29;20443;-64
2023/11/27 12:06:02;;;;;;;3.15;2.00;;;5.80;99.90;;;;;;4914685;29;20039;-64
2023/11/27 12:08:29;;;;;;;3.53;1.90;;;5.90;99.90;;;;;;4910567;29;20052;-65
2023/11/27 12:10:56;;;;;;;2.15;1.60;;;5.80;99.90;;;;;;4914742;29;20112;-65
2023/11/27 12:13:33;;;;;;;4.22;1.27;;;5.90;99.90;;;;;;4909851;29;20050;-64
2023/11/27 12:16:07;;;;;;;2.13;1.20;;;5.90;99.90;;;;;;4912331;29;20464;-64
2023/11/27 12:18:35;;;;;;;2.15;1.30;;;5.90;99.90;;;;;;4912367;29;20693;-64
2023/11/27 12:21:05;;;;;;;2.20;1.08;;;6.00;99.90;;;;;;4914328;29;20381;-64
2023/11/27 12:23:38;;;;;;;3.17;1.48;;;6.00;99.90;;;;;;4914104;29;20044;-64
2023/11/27 12:26:06;;;;;;;2.97;1.20;;;6.00;99.90;;;;;;4914646;29;20035;-64
2023/11/27 12:28:36;;;;;;;2.38;1.27;;;5.90;99.90;;;;;;4914230;29;20558;-65
2023/11/27 12:31:03;;;;;;;3.25;1.13;;;5.90;99.90;;;;;;4914811;29;20028;-64
2023/11/27 12:33:29;;;;;;;2.63;1.15;;;5.90;99.90;;;;;;4913839;29;20135;-64
2023/11/27 12:35:54;;;;;;;1.33;0.85;;;5.90;99.90;;;;;;4914317;29;20146;-64
2023/11/27 12:38:20;;;;;;;1.95;1.13;;;5.80;99.90;;;;;;4913351;29;20071;-64
2023/11/27 12:40:49;;;;;;;1.77;1.00;;;5.80;99.90;;;;;;4913697;29;20486;-64
2023/11/27 12:43:20;;;;;;;3.85;1.10;;;5.70;99.90;;;;;;4914551;29;20035;-64
2023/11/27 12:45:57;;;;;;;3.22;1.13;;;5.70;99.90;;;;;;4914249;29;20024;-64
2023/11/27 12:48:23;;;;;;;1.05;0.80;;;5.60;99.90;;;;;;4914175;29;20059;-64
2023/11/27 12:50:54;;;;;;;1.98;1.00;;;5.60;99.90;;;;;;4913985;29;20430;-65
2023/11/27 12:53:21;;;;;;;2.13;1.00;;;5.60;99.90;;;;;;4913891;29;20442;-64
2023/11/27 12:55:49;;;;;;;2.47;0.88;;;5.50;99.90;;;;;;4914287;29;20133;-65
2023/11/27 12:58:17;;;;;;;2.40;0.90;;;5.40;99.90;;;;;;4914329;29;20605;-65